Time;durP1;ratioP1;P1;durP2;ratioP2;P2;SDS_P1;SDS_P2;PMS_P1;PMS_P2;Temp;Humidity;BMP_temperature;BMP_pressure;BME280_temperature;BME280_humidity;BME280_pressure;Samples;Min_cycle;Max_cycle;Signal;HPM_P1;HPM_P2
2024/01/17 00:00:50;;;;;;;0.60;0.60;;;;;;;3.47;nan;99567.25;5104705;28;20768;-69
2024/01/17 00:03:16;;;;;;;1.00;1.00;;;;;;;3.45;nan;99571.50;5104868;28;20230;-69
2024/01/17 00:05:43;;;;;;;0.70;0.70;;;;;;;3.44;nan;99569.81;5099179;28;20264;-69
2024/01/17 00:08:10;;;;;;;0.60;0.60;;;;;;;3.43;nan;99575.69;5093006;28;20231;-70
2024/01/17 00:10:37;;;;;;;0.70;0.70;;;;;;;3.43;nan;99581.63;5102047;28;20702;-69
2024/01/17 00:13:05;;;;;;;0.70;0.70;;;;;;;3.41;nan;99578.25;5092141;28;20199;-69
2024/01/17 00:15:31;;;;;;;0.90;0.90;;;;;;;3.42;nan;99569.81;5100229;28;20288;-69
2024/01/17 00:17:58;;;;;;;0.77;0.77;;;;;;;3.45;nan;99576.56;5094755;28;20203;-69
2024/01/17 00:20:25;;;;;;;0.67;0.67;;;;;;;3.49;nan;99571.47;5098378;28;20633;-69
2024/01/17 00:22:54;;;;;;;1.00;1.00;;;;;;;3.48;nan;99564.75;5095144;28;20255;-69
2024/01/17 00:25:20;;;;;;;0.70;0.70;;;;;;;3.46;nan;99574.00;5098223;28;20294;-69
2024/01/17 00:27:49;;;;;;;0.60;0.60;;;;;;;3.44;nan;99567.25;5092855;28;20211;-69
2024/01/17 00:30:17;;;;;;;1.27;1.27;;;;;;;3.41;nan;99567.25;5096954;28;20250;-69
2024/01/17 00:32:44;;;;;;;0.80;0.80;;;;;;;3.39;nan;99567.28;5102903;28;20206;-69
2024/01/17 00:35:10;;;;;;;0.63;0.63;;;;;;;3.42;nan;99566.44;5096338;28;20199;-69
2024/01/17 00:37:37;;;;;;;0.80;0.80;;;;;;;3.41;nan;99562.19;5092977;28;20199;-70
2024/01/17 00:40:05;;;;;;;0.70;0.70;;;;;;;3.41;nan;99562.19;5093196;28;20324;-70
2024/01/17 00:42:31;;;;;;;0.70;0.70;;;;;;;3.42;nan;99558.81;5100040;28;20260;-70
2024/01/17 00:44:58;;;;;;;0.97;0.97;;;;;;;3.42;nan;99553.75;5099470;28;20206;-70
2024/01/17 00:47:27;;;;;;;0.60;0.60;;;;;;;3.43;nan;99570.63;5094765;28;20202;-69
2024/01/17 00:49:53;;;;;;;0.80;0.80;;;;;;;3.39;nan;99569.81;5101888;28;20260;-69
2024/01/17 00:52:20;;;;;;;0.60;0.60;;;;;;;3.41;nan;99569.78;5093284;28;20199;-70
2024/01/17 00:54:47;;;;;;;0.70;0.70;;;;;;;3.42;nan;99566.44;5096849;28;20272;-69
2024/01/17 00:57:14;;;;;;;0.90;0.90;;;;;;;3.27;nan;99569.78;5101022;28;20285;-69
2024/01/17 00:59:40;;;;;;;0.93;0.93;;;;;;;3.22;nan;99570.63;5100794;28;20199;-69
2024/01/17 01:02:07;;;;;;;0.77;0.77;;;;;;;3.15;nan;99568.06;5096203;28;20199;-70
2024/01/17 01:04:35;;;;;;;0.97;0.97;;;;;;;3.13;nan;99564.66;5094632;28;20657;-69
2024/01/17 01:07:02;;;;;;;1.20;1.20;;;;;;;3.05;nan;99568.03;5092710;28;20602;-69
2024/01/17 01:09:28;;;;;;;0.90;0.90;;;;;;;3.16;nan;99584.97;5093085;28;20206;-69
2024/01/17 01:11:55;;;;;;;0.80;0.80;;;;;;;3.04;nan;99587.44;5095402;28;20757;-69
2024/01/17 01:14:22;;;;;;;0.77;0.77;;;;;;;2.99;nan;99594.19;5101159;28;20574;-69
2024/01/17 01:16:49;;;;;;;0.93;0.93;;;;;;;2.96;nan;99593.34;5108641;28;20226;-69
2024/01/17 01:19:15;;;;;;;1.30;1.30;;;;;;;2.98;nan;99597.56;5100268;28;20203;-69
2024/01/17 01:21:43;;;;;;;0.60;0.60;;;;;;;2.95;nan;99592.50;5102683;28;20244;-69
2024/01/17 01:24:10;;;;;;;0.77;0.77;;;;;;;2.86;nan;99573.88;5102685;28;20206;-69
2024/01/17 01:26:37;;;;;;;0.97;0.97;;;;;;;2.94;nan;99590.78;5095568;28;20199;-69
2024/01/17 01:29:03;;;;;;;0.90;0.90;;;;;;;2.92;nan;99584.88;5095902;28;20206;-69
2024/01/17 01:31:30;;;;;;;0.53;0.53;;;;;;;2.95;nan;99584.03;5104206;28;20222;-69
2024/01/17 01:33:57;;;;;;;0.60;0.60;;;;;;;2.91;nan;99580.66;5102191;28;20203;-69
2024/01/17 01:36:23;;;;;;;1.27;1.27;;;;;;;2.93;nan;99580.66;5102387;28;20265;-69
2024/01/17 01:38:51;;;;;;;0.67;0.67;;;;;;;2.86;nan;99587.41;5109140;28;20256;-69
2024/01/17 01:41:18;;;;;;;0.90;0.90;;;;;;;2.81;nan;99586.53;5093657;28;20713;-69
2024/01/17 01:43:47;;;;;;;0.73;0.73;;;;;;;2.80;nan;99589.91;5099580;28;20195;-69
2024/01/17 01:46:17;;;;;;;0.70;0.70;;;;;;;2.75;nan;99581.44;5105014;28;20199;-68
2024/01/17 01:48:45;;;;;;;0.60;0.60;;;;;;;2.64;nan;99571.28;5099143;28;20257;-69
2024/01/17 01:51:13;;;;;;;1.83;1.83;;;;;;;2.73;nan;99589.88;5104252;28;20214;-69
2024/01/17 01:53:42;;;;;;;0.60;0.60;;;;;;;2.73;nan;99583.13;5100772;28;20651;-69
2024/01/17 01:56:12;;;;;;;1.07;1.07;;;;;;;2.74;nan;99577.22;5106998;28;20255;-69
2024/01/17 01:58:42;;;;;;;0.90;0.90;;;;;;;2.73;nan;99575.53;5104153;28;20664;-69
2024/01/17 02:01:11;;;;;;;0.93;0.93;;;;;;;2.70;nan;99572.16;5100070;28;20198;-69
2024/01/17 02:03:40;;;;;;;1.10;1.10;;;;;;;2.64;nan;99566.22;5100782;28;20253;-69
2024/01/17 02:06:07;;;;;;;0.60;0.60;;;;;;;2.66;nan;99568.75;5104180;28;20658;-69
2024/01/17 02:08:35;;;;;;;0.90;0.90;;;;;;;2.62;nan;99577.16;5105022;27;20986;-69
2024/01/17 02:11:02;;;;;;;0.90;0.90;;;;;;;2.53;nan;99572.91;5104152;28;20219;-69
2024/01/17 02:13:30;;;;;;;0.70;0.70;;;;;;;2.52;nan;99575.47;5099668;28;20206;-69
2024/01/17 02:15:57;;;;;;;1.17;1.17;;;;;;;2.39;nan;99563.56;5101304;28;20277;-69
2024/01/17 02:18:24;;;;;;;0.83;0.83;;;;;;;2.33;nan;99569.44;5099395;28;20207;-69
2024/01/17 02:20:51;;;;;;;0.80;0.80;;;;;;;2.26;nan;99562.66;5101893;28;20252;-69
2024/01/17 02:23:28;;;;;;;0.80;0.80;;;;;;;2.19;nan;99565.16;5101323;28;20199;-69
2024/01/17 02:25:57;;;;;;;1.10;1.10;;;;;;;2.10;nan;99566.75;5103643;28;20210;-69
2024/01/17 02:28:27;;;;;;;0.97;0.97;;;;;;;2.04;nan;99565.88;5097971;28;20203;-69
2024/01/17 02:30:54;;;;;;;0.70;0.70;;;;;;;1.98;nan;99571.75;5098419;28;20219;-69
2024/01/17 02:33:21;;;;;;;1.00;1.00;;;;;;;1.95;nan;99566.69;5101047;28;20207;-69
2024/01/17 02:35:48;;;;;;;0.80;0.80;;;;;;;1.93;nan;99568.34;5100251;28;20210;-69
2024/01/17 02:38:15;;;;;;;1.13;1.13;;;;;;;1.90;nan;99568.34;5104687;28;20667;-69
2024/01/17 02:40:42;;;;;;;1.63;1.63;;;;;;;1.84;nan;99568.28;5105037;28;20215;-69
2024/01/17 02:43:10;;;;;;;0.77;0.77;;;;;;;1.76;nan;99567.38;5098659;28;20199;-69
2024/01/17 02:45:37;;;;;;;1.43;1.43;;;;;;;1.76;nan;99574.97;5099682;28;20199;-69
2024/01/17 02:48:04;;;;;;;1.00;1.00;;;;;;;1.69;nan;99568.16;5095549;28;20260;-69
2024/01/17 02:50:31;;;;;;;0.80;0.80;;;;;;;1.65;nan;99566.44;5100547;28;20207;-69
2024/01/17 02:52:58;;;;;;;0.87;0.87;;;;;;;1.69;nan;99572.38;5097666;28;20203;-69
2024/01/17 02:55:24;;;;;;;1.17;1.17;;;;;;;1.62;nan;99576.53;5100742;28;20199;-69
2024/01/17 02:57:51;;;;;;;0.97;0.97;;;;;;;1.58;nan;99579.88;5098210;28;20199;-69
2024/01/17 03:00:20;;;;;;;0.70;0.70;;;;;;;1.54;nan;99570.56;5107099;28;20237;-69
2024/01/17 03:02:47;;;;;;;1.80;1.50;;;;;;;1.36;nan;99556.09;5100352;28;20236;-69
2024/01/17 03:05:14;;;;;;;0.80;0.80;;;;;;;1.44;nan;99571.31;5102829;28;20227;-69
2024/01/17 03:07:41;;;;;;;1.30;1.30;;;;;;;1.44;nan;99573.84;5103935;28;20259;-69
2024/01/17 03:10:11;;;;;;;0.60;0.60;;;;;;;1.42;nan;99557.84;5102887;28;20551;-68
2024/01/17 03:12:38;;;;;;;0.60;0.60;;;;;;;1.42;nan;99557.84;5101660;28;20298;-68
2024/01/17 03:15:06;;;;;;;1.00;1.00;;;;;;;1.46;nan;99551.97;5095565;28;20252;-69
2024/01/17 03:17:37;;;;;;;1.47;1.47;;;;;;;1.42;nan;99555.31;5098067;28;20198;-70
2024/01/17 03:20:05;;;;;;;0.80;0.80;;;;;;;1.33;nan;99552.69;5101152;28;20564;-69
2024/01/17 03:22:32;;;;;;;0.83;0.83;;;;;;;1.17;nan;99553.38;5095075;28;20200;-69
2024/01/17 03:24:59;;;;;;;0.70;0.70;;;;;;;1.03;nan;99533.88;5101541;28;20281;-69
2024/01/17 03:27:26;;;;;;;0.60;0.60;;;;;;;1.17;nan;99558.41;5099806;28;20310;-69
2024/01/17 03:29:52;;;;;;;0.93;0.93;;;;;;;1.20;nan;99566.03;5105810;28;20206;-69
2024/01/17 03:32:19;;;;;;;0.80;0.80;;;;;;;1.24;nan;99557.66;5092340;28;20279;-69
2024/01/17 03:34:47;;;;;;;0.80;0.80;;;;;;;1.23;nan;99545.88;5100966;28;20655;-69
2024/01/17 03:37:14;;;;;;;0.90;0.90;;;;;;;1.34;nan;99554.38;5094613;28;20286;-69
2024/01/17 03:39:43;;;;;;;1.53;1.53;;;;;;;1.39;nan;99561.16;5100899;28;20272;-69
2024/01/17 03:42:14;;;;;;;0.87;0.87;;;;;;;1.38;nan;99571.28;5102656;28;20202;-68
2024/01/17 03:44:41;;;;;;;0.70;0.70;;;;;;;1.34;nan;99575.44;5099736;28;20203;-68
2024/01/17 03:47:08;;;;;;;1.00;1.00;;;;;;;1.34;nan;99582.16;5103166;28;20272;-68
2024/01/17 03:49:34;;;;;;;0.70;0.70;;;;;;;1.22;nan;99559.34;5102716;28;20203;-68
2024/01/17 03:52:03;;;;;;;1.10;1.10;;;;;;;1.26;nan;99582.09;5100500;28;20219;-68
2024/01/17 03:54:29;;;;;;;1.43;1.37;;;;;;;1.26;nan;99583.78;5106844;28;20203;-68
2024/01/17 03:56:56;;;;;;;0.60;0.60;;;;;;;1.28;nan;99594.75;5101154;28;20265;-68
2024/01/17 03:59:23;;;;;;;0.77;0.77;;;;;;;1.33;nan;99583.00;5099834;28;20571;-68
2024/01/17 04:01:49;;;;;;;1.50;1.50;;;;;;;1.34;nan;99588.06;5094108;28;20272;-68
2024/01/17 04:04:16;;;;;;;1.30;1.30;;;;;;;1.34;nan;99593.13;5099441;28;20263;-68
2024/01/17 04:06:43;;;;;;;0.80;0.80;;;;;;;1.25;nan;99599.75;5092942;28;20204;-68
2024/01/17 04:09:11;;;;;;;0.70;0.70;;;;;;;1.15;nan;99608.91;5097989;28;20204;-68
2024/01/17 04:11:37;;;;;;;0.80;0.80;;;;;;;1.03;nan;99614.66;5102944;28;20652;-68
2024/01/17 04:14:04;;;;;;;0.77;0.77;;;;;;;0.93;nan;99617.09;5102331;28;20199;-68
2024/01/17 04:16:31;;;;;;;1.20;1.20;;;;;;;0.86;nan;99613.63;5103133;28;20227;-68
2024/01/17 04:18:58;;;;;;;1.60;1.60;;;;;;;0.76;nan;99614.34;5099349;28;20199;-68
2024/01/17 04:21:24;;;;;;;0.60;0.60;;;;;;;0.78;nan;99622.78;5099327;28;20194;-68
2024/01/17 04:23:51;;;;;;;0.83;0.83;;;;;;;0.60;nan;99587.25;5093066;28;20215;-68
2024/01/17 04:26:23;;;;;;;0.77;0.77;;;;;;;0.79;nan;99614.38;5094427;28;20663;-68
2024/01/17 04:28:51;;;;;;;0.93;0.93;;;;;;;0.82;nan;99614.44;5100512;28;20204;-68
2024/01/17 04:31:25;;;;;;;0.80;0.80;;;;;;;0.85;nan;99608.56;5102198;28;20755;-68
2024/01/17 04:33:51;;;;;;;0.73;0.73;;;;;;;0.89;nan;99616.19;5089973;28;20230;-68
2024/01/17 04:36:18;;;;;;;1.37;1.37;;;;;;;0.92;nan;99611.19;5093368;28;20675;-68
2024/01/17 04:38:45;;;;;;;0.80;0.80;;;;;;;0.94;nan;99619.59;5097355;28;20207;-68
2024/01/17 04:41:13;;;;;;;0.67;0.67;;;;;;;0.97;nan;99618.81;5094683;28;20670;-68
2024/01/17 04:43:42;;;;;;;1.23;1.20;;;;;;;0.90;nan;99597.72;5092030;28;20259;-68
2024/01/17 04:46:09;;;;;;;0.97;0.97;;;;;;;0.98;nan;99618.81;5088127;28;20195;-68
2024/01/17 04:48:36;;;;;;;1.00;1.00;;;;;;;0.87;nan;99601.88;5089049;28;20238;-68
2024/01/17 04:51:04;;;;;;;0.80;0.80;;;;;;;0.96;nan;99617.97;5094188;28;20748;-68
2024/01/17 04:53:31;;;;;;;0.60;0.60;;;;;;;0.98;nan;99631.44;5089074;28;20206;-68
2024/01/17 04:55:58;;;;;;;1.00;1.00;;;;;;;1.01;nan;99641.56;5092098;28;20208;-68
2024/01/17 04:58:25;;;;;;;0.90;0.90;;;;;;;0.88;nan;99647.31;5088282;28;20564;-68
2024/01/17 05:00:53;;;;;;;0.77;0.77;;;;;;;0.92;nan;99650.72;5097321;28;20207;-67
2024/01/17 05:03:20;;;;;;;0.90;0.90;;;;;;;0.91;nan;99654.91;5088985;28;20252;-67
2024/01/17 05:05:46;;;;;;;0.80;0.80;;;;;;;0.89;nan;99656.56;5091107;28;20203;-67
2024/01/17 05:08:14;;;;;;;0.87;0.87;;;;;;;0.97;nan;99662.53;5095925;28;20199;-67
2024/01/17 05:10:42;;;;;;;1.13;1.13;;;;;;;0.96;nan;99657.50;5096316;28;20264;-67
2024/01/17 05:13:09;;;;;;;0.93;0.93;;;;;;;0.95;nan;99651.59;5088967;28;20215;-67
2024/01/17 05:15:36;;;;;;;0.97;0.97;;;;;;;0.99;nan;99652.47;5088380;28;20223;-67
2024/01/17 05:18:05;;;;;;;0.73;0.73;;;;;;;0.99;nan;99652.47;5097220;28;20252;-67
2024/01/17 05:20:32;;;;;;;0.90;0.90;;;;;;;0.93;nan;99642.31;5088314;28;20597;-67
2024/01/17 05:22:59;;;;;;;1.27;1.27;;;;;;;0.98;nan;99660.88;5093578;28;20655;-67
2024/01/17 05:25:27;;;;;;;0.67;0.67;;;;;;;0.79;nan;99639.63;5099186;28;20207;-67
2024/01/17 05:27:53;;;;;;;1.80;1.70;;;;;;;0.89;nan;99663.28;5088821;28;20265;-67
2024/01/17 05:30:20;;;;;;;0.70;0.70;;;;;;;0.91;nan;99665.00;5089166;28;20204;-67
2024/01/17 05:32:48;;;;;;;0.80;0.80;;;;;;;0.84;nan;99677.53;5089642;28;20259;-67
2024/01/17 05:35:16;;;;;;;0.97;0.97;;;;;;;0.85;nan;99689.31;5093118;28;20203;-67
2024/01/17 05:37:43;;;;;;;0.93;0.93;;;;;;;0.86;nan;99691.88;5087644;28;20303;-67
2024/01/17 05:40:11;;;;;;;0.60;0.60;;;;;;;0.86;nan;99696.91;5093040;28;20260;-67
2024/01/17 05:42:38;;;;;;;0.70;0.70;;;;;;;0.79;nan;99680.00;5090383;28;20203;-66
2024/01/17 05:45:07;;;;;;;0.80;0.80;;;;;;;0.84;nan;99682.59;5097617;28;20203;-67
2024/01/17 05:47:35;;;;;;;0.60;0.60;;;;;;;0.82;nan;99685.09;5103878;28;20207;-66
2024/01/17 05:50:02;;;;;;;0.70;0.70;;;;;;;0.79;nan;99689.22;5090496;28;20291;-66
2024/01/17 05:52:30;;;;;;;1.13;1.13;;;;;;;0.76;nan;99685.00;5097148;28;20598;-66
2024/01/17 05:54:57;;;;;;;0.80;0.80;;;;;;;0.74;nan;99691.72;5099223;28;20198;-66
2024/01/17 05:57:23;;;;;;;1.00;1.00;;;;;;;0.75;nan;99692.53;5096336;28;20733;-66
2024/01/17 05:59:50;;;;;;;0.80;0.80;;;;;;;0.75;nan;99700.97;5097045;28;20653;-66
2024/01/17 06:02:17;;;;;;;0.70;0.70;;;;;;;0.75;nan;99707.66;5099913;28;20703;-66
2024/01/17 06:04:44;;;;;;;0.80;0.80;;;;;;;0.64;nan;99699.97;5094776;28;20695;-66
2024/01/17 06:07:11;;;;;;;1.67;1.67;;;;;;;0.72;nan;99698.38;5089549;28;20210;-66
2024/01/17 06:09:39;;;;;;;0.80;0.80;;;;;;;0.70;nan;99700.06;5106416;28;20206;-66
2024/01/17 06:12:06;;;;;;;0.90;0.90;;;;;;;0.70;nan;99695.00;5096403;28;20215;-66
2024/01/17 06:14:33;;;;;;;0.90;0.90;;;;;;;0.66;nan;99685.69;5090978;28;20227;-68
2024/01/17 06:17:00;;;;;;;0.80;0.80;;;;;;;0.66;nan;99682.31;5097623;28;20300;-66
2024/01/17 06:19:27;;;;;;;0.70;0.70;;;;;;;0.63;nan;99703.31;5099318;28;20207;-66
2024/01/17 06:21:53;;;;;;;0.97;0.97;;;;;;;0.66;nan;99712.59;5092671;28;20249;-66
2024/01/17 06:24:20;;;;;;;1.17;1.17;;;;;;;0.67;nan;99717.69;5097949;28;20204;-66
2024/01/17 06:26:48;;;;;;;1.13;1.13;;;;;;;0.69;nan;99713.50;5101078;28;20256;-66
2024/01/17 06:29:15;;;;;;;0.90;0.90;;;;;;;0.70;nan;99715.19;5092618;28;20199;-66
2024/01/17 06:31:41;;;;;;;1.20;1.20;;;;;;;0.71;nan;99711.81;5090654;28;20215;-66
2024/01/17 06:34:08;;;;;;;3.80;1.83;;;;;;;0.73;nan;99715.25;5090739;28;20200;-66
2024/01/17 06:36:35;;;;;;;0.70;0.70;;;;;;;0.76;nan;99715.28;5093656;28;20687;-66
2024/01/17 06:39:01;;;;;;;0.90;0.90;;;;;;;0.77;nan;99722.03;5087511;28;20207;-66
2024/01/17 06:41:28;;;;;;;0.60;0.60;;;;;;;0.80;nan;99732.16;5087039;28;20265;-66
2024/01/17 06:43:56;;;;;;;0.77;0.77;;;;;;;0.83;nan;99724.63;5089257;28;20207;-66
2024/01/17 06:46:23;;;;;;;0.70;0.70;;;;;;;0.76;nan;99695.09;5089380;28;20256;-65
2024/01/17 06:48:49;;;;;;;0.70;0.70;;;;;;;0.98;nan;99736.59;5090828;28;20257;-66
2024/01/17 06:51:16;;;;;;;0.70;0.70;;;;;;;1.05;nan;99724.09;5093582;28;20257;-66
2024/01/17 06:53:43;;;;;;;0.90;0.90;;;;;;;1.13;nan;99725.88;5091710;28;20215;-66
2024/01/17 06:56:10;;;;;;;0.70;0.70;;;;;;;1.18;nan;99725.09;5097389;28;20736;-66
2024/01/17 06:58:36;;;;;;;0.87;0.87;;;;;;;1.25;nan;99723.50;5091031;28;20200;-66
2024/01/17 07:01:04;;;;;;;1.00;1.00;;;;;;;1.30;nan;99729.44;5088053;28;20199;-67
2024/01/17 07:03:31;;;;;;;0.60;0.60;;;;;;;1.33;nan;99737.88;5092248;28;20191;-66
2024/01/17 07:05:58;;;;;;;1.10;1.10;;;;;;;1.34;nan;99748.84;5091311;28;20617;-67
2024/01/17 07:08:24;;;;;;;0.80;0.80;;;;;;;1.33;nan;99742.09;5099793;28;20271;-66
2024/01/17 07:10:51;;;;;;;0.70;0.70;;;;;;;1.35;nan;99742.97;5098398;28;20211;-66
2024/01/17 07:13:18;;;;;;;1.07;1.07;;;;;;;1.32;nan;99727.78;5094159;28;20220;-66
2024/01/17 07:15:44;;;;;;;0.83;0.83;;;;;;;1.27;nan;99716.78;5094742;28;21688;-66
2024/01/17 07:18:13;;;;;;;0.80;0.80;;;;;;;1.37;nan;99732.06;5094796;28;20200;-66
2024/01/17 07:20:39;;;;;;;0.83;0.83;;;;;;;1.39;nan;99727.84;5090433;28;20290;-66
2024/01/17 07:23:10;;;;;;;1.43;0.80;;;;;;;1.42;nan;99727.06;5088733;28;20195;-66
2024/01/17 07:25:38;;;;;;;1.20;1.20;;;;;;;1.35;nan;99710.16;5095124;28;20199;-66
2024/01/17 07:28:06;;;;;;;1.10;1.10;;;;;;;1.45;nan;99727.97;5093260;28;20229;-66
2024/01/17 07:30:32;;;;;;;1.27;1.27;;;;;;;1.53;nan;99722.97;5093547;28;20203;-66
2024/01/17 07:32:59;;;;;;;1.00;1.00;;;;;;;1.54;nan;99724.69;5094195;28;20219;-67
2024/01/17 07:35:27;;;;;;;0.87;0.87;;;;;;;1.55;nan;99734.78;5099270;28;20203;-66
2024/01/17 07:37:54;;;;;;;1.97;1.67;;;;;;;1.58;nan;99734.00;5091736;28;20204;-66
2024/01/17 07:40:21;;;;;;;0.80;0.80;;;;;;;1.61;nan;99731.50;5088138;28;20256;-66
2024/01/17 07:42:47;;;;;;;0.90;0.90;;;;;;;1.68;nan;99733.22;5094249;28;20200;-66
2024/01/17 07:45:15;;;;;;;0.80;0.80;;;;;;;1.69;nan;99719.78;5094063;28;20842;-67
2024/01/17 07:47:41;;;;;;;0.80;0.80;;;;;;;1.69;nan;99717.25;5089289;28;20214;-67
2024/01/17 07:50:11;;;;;;;0.70;0.70;;;;;;;1.65;nan;99715.50;5093707;28;20199;-67
2024/01/17 07:52:40;;;;;;;0.80;0.80;;;;;;;1.73;nan;99716.47;5095074;28;20242;-67
2024/01/17 07:55:07;;;;;;;0.70;0.70;;;;;;;1.80;nan;99717.38;5093108;28;20206;-67
2024/01/17 07:57:33;;;;;;;1.03;1.03;;;;;;;1.78;nan;99707.22;5099932;28;20616;-67
2024/01/17 08:00:00;;;;;;;1.30;1.20;;;;;;;1.94;nan;99721.72;5104388;28;20210;-67
2024/01/17 08:02:26;;;;;;;0.77;0.77;;;;;;;2.05;nan;99715.09;5107696;28;20270;-68
2024/01/17 08:04:53;;;;;;;2.10;2.00;;;;;;;2.13;nan;99718.50;5099703;28;20235;-68
2024/01/17 08:07:24;;;;;;;2.00;2.00;;;;;;;2.24;nan;99720.28;5100288;28;20230;-68
2024/01/17 08:09:52;;;;;;;1.20;1.20;;;;;;;2.36;nan;99717.88;5100744;28;20203;-68
2024/01/17 08:12:19;;;;;;;0.93;0.93;;;;;;;2.35;nan;99708.59;5098076;28;20214;-68
2024/01/17 08:14:46;;;;;;;1.27;1.17;;;;;;;2.60;nan;99720.56;5100201;28;20632;-68
2024/01/17 08:17:12;;;;;;;1.13;1.13;;;;;;;2.73;nan;99717.28;5101939;28;20230;-69
2024/01/17 08:19:39;;;;;;;1.70;1.70;;;;;;;2.84;nan;99720.75;5103405;28;20203;-68
2024/01/17 08:22:06;;;;;;;2.93;0.90;;;;;;;2.96;nan;99723.34;5106122;28;20203;-69
2024/01/17 08:24:33;;;;;;;1.40;1.40;;;;;;;3.02;nan;99725.88;5097344;28;20636;-69
2024/01/17 08:27:01;;;;;;;1.23;1.13;;;;;;;3.20;nan;99724.28;5099663;28;20190;-69
2024/01/17 08:29:28;;;;;;;1.03;1.03;;;;;;;3.27;nan;99718.38;5104727;28;20204;-69
2024/01/17 08:31:54;;;;;;;1.13;1.13;;;;;;;3.38;nan;99719.28;5097792;28;20203;-70
2024/01/17 08:34:22;;;;;;;1.07;0.90;;;;;;;3.50;nan;99729.47;5102448;28;20215;-70
2024/01/17 08:36:49;;;;;;;0.80;0.80;;;;;;;3.61;nan;99740.50;5098047;28;20207;-72
2024/01/17 08:39:16;;;;;;;1.73;1.63;;;;;;;3.68;nan;99740.50;5089095;28;20207;-72
2024/01/17 08:41:45;;;;;;;0.60;0.60;;;;;;;3.69;nan;99732.06;5094924;28;20203;-72
2024/01/17 08:44:14;;;;;;;3.87;0.90;;;;;;;3.74;nan;99721.94;5103275;28;20201;-73
2024/01/17 08:46:44;;;;;;;0.60;0.60;;;;;;;3.89;nan;99737.19;5099971;28;20253;-71
2024/01/17 08:49:11;;;;;;;0.73;0.73;;;;;;;3.91;nan;99727.88;5094567;28;20587;-70
2024/01/17 08:51:38;;;;;;;0.60;0.60;;;;;;;3.95;nan;99704.22;5091258;28;20202;-71
2024/01/17 08:54:05;;;;;;;0.87;0.87;;;;;;;3.96;nan;99716.06;5092241;28;20667;-71
2024/01/17 08:56:31;;;;;;;0.60;0.60;;;;;;;3.91;nan;99696.63;5090497;28;20199;-73
2024/01/17 08:58:58;;;;;;;1.53;1.53;;;;;;;4.09;nan;99711.84;5090719;28;20276;-73
2024/01/17 09:01:26;;;;;;;1.30;1.20;;;;;;;4.15;nan;99710.16;5090459;28;20203;-73
2024/01/17 09:03:54;;;;;;;0.93;0.93;;;;;;;4.24;nan;99707.63;5091098;28;20728;-73
2024/01/17 09:06:21;;;;;;;0.87;0.83;;;;;;;4.34;nan;99687.31;5090768;28;20199;-73
2024/01/17 09:08:47;;;;;;;1.67;1.47;;;;;;;4.43;nan;99694.91;5090918;28;20264;-73
2024/01/17 09:11:13;;;;;;;2.10;1.60;;;;;;;4.46;nan;99684.78;5088552;28;20199;-75
2024/01/17 09:13:41;;;;;;;0.80;0.80;;;;;;;4.57;nan;99685.59;5096664;28;20229;-71
2024/01/17 09:16:08;;;;;;;1.20;1.20;;;;;;;4.56;nan;99686.44;5106375;28;20218;-71
2024/01/17 09:18:36;;;;;;;0.90;0.90;;;;;;;4.71;nan;99694.91;5100482;28;20206;-71
2024/01/17 09:21:04;;;;;;;0.57;0.57;;;;;;;4.82;nan;99692.31;5097986;28;20207;-71
2024/01/17 09:23:31;;;;;;;1.57;1.57;;;;;;;4.89;nan;99683.84;5088608;28;20191;-71
2024/01/17 09:25:58;;;;;;;0.80;0.80;;;;;;;4.97;nan;99682.13;5089215;28;20252;-71
2024/01/17 09:28:24;;;;;;;1.10;1.10;;;;;;;5.06;nan;99677.00;5086692;28;20660;-71
2024/01/17 09:30:51;;;;;;;2.57;2.53;;;;;;;5.18;nan;99676.97;5090245;28;20195;-72
2024/01/17 09:33:18;;;;;;;0.70;0.70;;;;;;;5.29;nan;99677.78;5090817;28;20207;-72
2024/01/17 09:35:46;;;;;;;0.70;0.70;;;;;;;5.32;nan;99669.28;5094464;28;20252;-72
2024/01/17 09:38:13;;;;;;;2.27;1.27;;;;;;;5.37;nan;99676.88;5097087;28;20663;-71
2024/01/17 09:40:40;;;;;;;0.83;0.83;;;;;;;5.41;nan;99673.47;5093118;28;20575;-71
2024/01/17 09:43:08;;;;;;;1.97;1.90;;;;;;;5.50;nan;99675.94;5093108;28;20195;-73
2024/01/17 09:45:35;;;;;;;1.13;1.13;;;;;;;5.44;nan;99651.41;5094034;28;20282;-70
2024/01/17 09:48:03;;;;;;;0.80;0.80;;;;;;;5.59;nan;99665.75;5094141;28;20195;-70
2024/01/17 09:50:30;;;;;;;1.80;1.73;;;;;;;5.58;nan;99661.50;5092185;28;20203;-72
2024/01/17 09:52:58;;;;;;;0.70;0.70;;;;;;;5.65;nan;99661.47;5092810;28;20215;-71
2024/01/17 09:55:27;;;;;;;1.23;1.23;;;;;;;5.69;nan;99654.66;5098355;28;20236;-72
2024/01/17 09:57:57;;;;;;;0.60;0.60;;;;;;;5.85;nan;99650.31;5091762;28;20203;-71
2024/01/17 10:00:25;;;;;;;0.87;0.87;;;;;;;5.92;nan;99641.78;5094087;28;20229;-71
2024/01/17 10:02:55;;;;;;;0.83;0.83;;;;;;;5.97;nan;99642.63;5093981;28;20681;-71
2024/01/17 10:05:26;;;;;;;1.30;1.20;;;;;;;6.05;nan;99648.47;5094381;28;20544;-71
2024/01/17 10:07:55;;;;;;;1.60;1.60;;;;;;;6.00;nan;99646.00;5093851;28;20205;-70
2024/01/17 10:10:23;;;;;;;1.00;1.00;;;;;;;6.03;nan;99645.97;5098213;28;20552;-70
2024/01/17 10:12:49;;;;;;;1.00;1.00;;;;;;;6.11;nan;99639.09;5093159;28;20195;-71
2024/01/17 10:15:16;;;;;;;1.10;1.07;;;;;;;6.14;nan;99635.69;5091916;28;20272;-70
2024/01/17 10:17:43;;;;;;;1.00;1.00;;;;;;;6.10;nan;99622.16;5110735;28;20202;-70
2024/01/17 10:20:10;;;;;;;1.00;1.00;;;;;;;6.24;nan;99620.31;5092839;28;20200;-72
2024/01/17 10:22:38;;;;;;;0.77;0.77;;;;;;;6.36;nan;99619.38;5094663;28;20256;-71
2024/01/17 10:25:05;;;;;;;1.10;1.10;;;;;;;6.45;nan;99618.44;5114032;28;20285;-71
2024/01/17 10:27:35;;;;;;;2.60;1.33;;;;;;;6.52;nan;99609.88;5102300;28;20199;-72
2024/01/17 10:30:02;;;;;;;2.47;1.00;;;;;;;6.55;nan;99604.75;5107343;28;20261;-71
2024/01/17 10:32:31;;;;;;;1.07;1.07;;;;;;;6.61;nan;99604.66;5090426;28;20687;-71
2024/01/17 10:34:58;;;;;;;1.50;1.50;;;;;;;6.59;nan;99616.59;5100955;28;20292;-68
2024/01/17 10:37:25;;;;;;;1.13;1.13;;;;;;;6.59;nan;99604.66;5088233;28;20632;-70
2024/01/17 10:40:09;;;;;;;1.73;1.63;;;;;;;6.75;nan;99608.75;5095761;28;20199;-70
2024/01/17 10:42:37;;;;;;;1.60;1.50;;;;;;;6.78;nan;99597.69;5094000;28;20618;-70
2024/01/17 10:45:05;;;;;;;1.40;1.40;;;;;;;6.90;nan;99587.34;5090050;28;20200;-70
2024/01/17 10:47:31;;;;;;;1.77;1.63;;;;;;;7.05;nan;99571.00;5091630;28;20567;-70
2024/01/17 10:49:58;;;;;;;0.90;0.90;;;;;;;7.15;nan;99563.22;5097263;28;20260;-71
2024/01/17 10:52:31;;;;;;;1.57;1.57;;;;;;;7.19;nan;99557.22;5100279;28;20269;-70
2024/01/17 10:55:04;;;;;;;1.53;1.47;;;;;;;7.19;nan;99541.06;5101124;28;20207;-70
2024/01/17 10:57:34;;;;;;;3.23;1.43;;;;;;;7.27;nan;99550.28;5085363;28;20610;-71
2024/01/17 11:00:04;;;;;;;1.67;1.57;;;;;;;7.34;nan;99549.34;5094222;28;20661;-71
2024/01/17 11:02:32;;;;;;;1.63;1.60;;;;;;;7.38;nan;99539.94;5091162;28;20199;-71
2024/01/17 11:05:06;;;;;;;3.17;1.77;;;;;;;7.47;nan;99534.69;5090089;28;20226;-71
2024/01/17 11:07:34;;;;;;;1.67;1.67;;;;;;;7.47;nan;99523.63;5090703;28;20237;-71
2024/01/17 11:10:04;;;;;;;2.63;1.67;;;;;;;7.60;nan;99532.78;5091155;28;20202;-71
2024/01/17 11:12:33;;;;;;;1.10;1.10;;;;;;;7.65;nan;99528.47;5092300;28;20294;-71
2024/01/17 11:15:03;;;;;;;1.57;1.47;;;;;;;7.72;nan;99507.09;5095827;28;20219;-71
2024/01/17 11:17:35;;;;;;;1.47;1.47;;;;;;;7.82;nan;99513.69;5094733;28;20695;-70
2024/01/17 11:20:07;;;;;;;1.47;1.47;;;;;;;7.82;nan;99498.38;5098231;28;20206;-71
2024/01/17 11:22:37;;;;;;;1.50;1.40;;;;;;;7.90;nan;99504.22;5090624;28;20655;-71
2024/01/17 11:25:13;;;;;;;2.57;1.40;;;;;;;7.88;nan;99508.50;5090609;28;20203;-71
2024/01/17 11:27:46;;;;;;;2.27;2.17;;;;;;;7.95;nan;99496.47;5099102;28;20206;-70
2024/01/17 11:30:28;;;;;;;1.33;1.33;;;;;;;7.86;nan;99492.38;5095176;28;20677;-69
2024/01/17 11:33:03;;;;;;;1.73;1.33;;;;;;;7.84;nan;99489.00;5094085;28;20635;-69
2024/01/17 11:35:45;;;;;;;2.00;1.87;;;;;;;7.91;nan;99495.69;5091427;28;20230;-70
2024/01/17 11:38:29;;;;;;;7.07;1.40;;;;;;;7.95;nan;99492.19;5091366;28;20245;-69
2024/01/17 11:40:57;;;;;;;1.37;1.10;;;;;;;8.01;nan;99486.16;5083941;28;20288;-70
2024/01/17 11:43:27;;;;;;;1.67;1.60;;;;;;;8.07;nan;99486.88;5089108;28;21739;-70
2024/01/17 11:45:55;;;;;;;2.13;2.00;;;;;;;8.20;nan;99467.06;5096484;28;20199;-70
2024/01/17 11:48:25;;;;;;;1.47;1.37;;;;;;;8.22;nan;99463.59;5094840;28;20194;-69
2024/01/17 11:51:05;;;;;;;1.87;1.67;;;;;;;8.17;nan;99457.75;5092919;28;20194;-70
2024/01/17 11:53:35;;;;;;;1.40;1.40;;;;;;;8.15;nan;99467.13;5095470;28;20275;-70
2024/01/17 11:56:03;;;;;;;4.50;1.50;;;;;;;8.20;nan;99462.81;5091873;28;20199;-70
2024/01/17 11:58:41;;;;;;;1.50;1.40;;;;;;;8.22;nan;99447.44;5096922;28;20346;-70
2024/01/17 12:01:10;;;;;;;4.63;3.20;;;;;;;8.28;nan;99440.53;5094599;28;21195;-64